Colton, Washington
Current Conditions -  °F | °C
As of 10:23 AM on Friday 19 Dec 2014 (Local Time) from KPUW Reporting Station
Moderate Rain Moderate Rain  
Wind Chill:   Ceiling: 1400
Heat Index:   Visibility: 3mi
Dew Point:   Wind: 15mph
Humidity: 97%   Direction: 230°SW
Pressure: 29.95"   Gusts: 18mph
Location:  46.57°N, 117.13°W
Report Text: KPUW 191823Z AUTO 23013G16KT 3SM RA BR BKN014 OVC021 04/04 A2995 RMK AO2 P0006 T00440039
Loading
Personal Weather Stations






























Interactive Weather Map New forecast layout! Learn more

10-Day Weather Forecast

Advertisements
Track Severe Weather on mobile